sensor_id;sensor_type;location;lat;lon;timestamp;pressure;altitude;pressure_sealevel;temperature;humidity
29935;BME280;19905;53.370;-6.314;2023-04-01T00:01:18;99935.06;;;8.69;100.00
29935;BME280;19905;53.370;-6.314;2023-04-01T00:03:47;99933.25;;;8.70;100.00
29935;BME280;19905;53.370;-6.314;2023-04-01T00:06:17;99945.72;;;8.68;100.00
29935;BME280;19905;53.370;-6.314;2023-04-01T00:08:48;99947.63;;;8.65;100.00
29935;BME280;19905;53.370;-6.314;2023-04-01T00:11:17;99952.06;;;8.65;100.00
29935;BME280;19905;53.370;-6.314;2023-04-01T00:13:47;99949.31;;;8.67;100.00
29935;BME280;19905;53.370;-6.314;2023-04-01T00:16:16;99949.41;;;8.65;100.00
29935;BME280;19905;53.370;-6.314;2023-04-01T00:18:48;99952.06;;;8.65;100.00
29935;BME280;19905;53.370;-6.314;2023-04-01T00:21:19;99952.06;;;8.65;100.00
29935;BME280;19905;53.370;-6.314;2023-04-01T00:23:51;99951.50;;;8.61;100.00
29935;BME280;19905;53.370;-6.314;2023-04-01T00:26:20;99946.47;;;8.58;100.00
29935;BME280;19905;53.370;-6.314;2023-04-01T00:28:49;99945.63;;;8.58;100.00
29935;BME280;19905;53.370;-6.314;2023-04-01T00:31:18;99953.63;;;8.56;100.00
29935;BME280;19905;53.370;-6.314;2023-04-01T00:33:47;99953.75;;;8.55;100.00
29935;BME280;19905;53.370;-6.314;2023-04-01T00:36:18;99960.00;;;8.54;100.00
29935;BME280;19905;53.370;-6.314;2023-04-01T00:38:50;99961.88;;;8.52;100.00
29935;BME280;19905;53.370;-6.314;2023-04-01T00:41:19;99957.34;;;8.54;100.00
29935;BME280;19905;53.370;-6.314;2023-04-01T00:43:50;99960.81;;;8.54;100.00
29935;BME280;19905;53.370;-6.314;2023-04-01T00:46:19;99962.75;;;8.52;100.00
29935;BME280;19905;53.370;-6.314;2023-04-01T00:48:51;99958.41;;;8.51;100.00
29935;BME280;19905;53.370;-6.314;2023-04-01T00:51:22;99960.22;;;8.51;100.00
29935;BME280;19905;53.370;-6.314;2023-04-01T00:53:56;99960.22;;;8.51;100.00
29935;BME280;19905;53.370;-6.314;2023-04-01T00:56:30;99962.03;;;8.50;100.00
29935;BME280;19905;53.370;-6.314;2023-04-01T00:59:01;99961.19;;;8.50;100.00
29935;BME280;19905;53.370;-6.314;2023-04-01T01:01:35;99964.78;;;8.49;100.00
29935;BME280;19905;53.370;-6.314;2023-04-01T01:04:04;99964.06;;;8.47;100.00
29935;BME280;19905;53.370;-6.314;2023-04-01T01:06:42;99965.03;;;8.46;100.00
29935;BME280;19905;53.370;-6.314;2023-04-01T01:09:25;99965.16;;;8.44;100.00
29935;BME280;19905;53.370;-6.314;2023-04-01T01:12:03;99959.16;;;8.42;100.00
29935;BME280;19905;53.370;-6.314;2023-04-01T01:14:46;99965.38;;;8.41;100.00
29935;BME280;19905;53.370;-6.314;2023-04-01T01:17:26;99966.47;;;8.38;100.00
29935;BME280;19905;53.370;-6.314;2023-04-01T01:20:24;99961.31;;;8.37;100.00
29935;BME280;19905;53.370;-6.314;2023-04-01T01:23:06;99970.03;;;8.37;100.00
29935;BME280;19905;53.370;-6.314;2023-04-01T01:25:53;99972.69;;;8.37;100.00
29935;BME280;19905;53.370;-6.314;2023-04-01T01:28:36;99974.56;;;8.35;100.00
29935;BME280;19905;53.370;-6.314;2023-04-01T01:31:16;99976.38;;;8.35;100.00
29935;BME280;19905;53.370;-6.314;2023-04-01T01:33:57;99983.44;;;8.34;100.00
29935;BME280;19905;53.370;-6.314;2023-04-01T01:36:32;99978.91;;;8.36;100.00
29935;BME280;19905;53.370;-6.314;2023-04-01T01:39:04;99988.69;;;8.34;100.00
29935;BME280;19905;53.370;-6.314;2023-04-01T01:41:34;99986.06;;;8.34;100.00
29935;BME280;19905;53.370;-6.314;2023-04-01T01:44:08;99988.78;;;8.33;100.00
29935;BME280;19905;53.370;-6.314;2023-04-01T01:46:39;99985.31;;;8.32;100.00
29935;BME280;19905;53.370;-6.314;2023-04-01T01:49:10;99985.31;;;8.32;100.00
29935;BME280;19905;53.370;-6.314;2023-04-01T01:51:43;99992.16;;;8.35;100.00
29935;BME280;19905;53.370;-6.314;2023-04-01T01:54:13;99986.28;;;8.31;100.00
29935;BME280;19905;53.370;-6.314;2023-04-01T01:56:44;99987.13;;;8.32;100.00
29935;BME280;19905;53.370;-6.314;2023-04-01T01:59:18;99987.34;;;8.29;100.00
29935;BME280;19905;53.370;-6.314;2023-04-01T02:01:51;99984.72;;;8.29;100.00
29935;BME280;19905;53.370;-6.314;2023-04-01T02:04:22;99992.63;;;8.29;100.00
29935;BME280;19905;53.370;-6.314;2023-04-01T02:06:55;99990.13;;;8.27;100.00
29935;BME280;19905;53.370;-6.314;2023-04-01T02:09:27;99992.97;;;8.24;100.00
29935;BME280;19905;53.370;-6.314;2023-04-01T02:11:57;99993.84;;;8.25;100.00
29935;BME280;19905;53.370;-6.314;2023-04-01T02:14:29;99996.34;;;8.26;100.00
29935;BME280;19905;53.370;-6.314;2023-04-01T02:17:05;100006.25;;;8.23;100.00
29935;BME280;19905;53.370;-6.314;2023-04-01T02:19:38;100007.94;;;8.24;100.00
29935;BME280;19905;53.370;-6.314;2023-04-01T02:22:11;100015.72;;;8.25;100.00
29935;BME280;19905;53.370;-6.314;2023-04-01T02:24:43;100020.03;;;8.26;100.00
29935;BME280;19905;53.370;-6.314;2023-04-01T02:27:13;100022.78;;;8.25;100.00
29935;BME280;19905;53.370;-6.314;2023-04-01T02:29:41;100023.63;;;8.25;100.00
29935;BME280;19905;53.370;-6.314;2023-04-01T02:32:11;100025.41;;;8.25;100.00
29935;BME280;19905;53.370;-6.314;2023-04-01T02:34:42;100024.56;;;8.24;100.00
29935;BME280;19905;53.370;-6.314;2023-04-01T02:37:14;100027.91;;;8.26;100.00
29935;BME280;19905;53.370;-6.314;2023-04-01T02:39:43;100025.28;;;8.26;100.00
29935;BME280;19905;53.370;-6.314;2023-04-01T02:42:13;100026.13;;;8.27;100.00
29935;BME280;19905;53.370;-6.314;2023-04-01T02:44:42;100024.56;;;8.24;100.00
29935;BME280;19905;53.370;-6.314;2023-04-01T02:47:10;100037.84;;;8.23;100.00
29935;BME280;19905;53.370;-6.314;2023-04-01T02:49:39;100029.94;;;8.23;100.00
29935;BME280;19905;53.370;-6.314;2023-04-01T02:52:09;100034.38;;;8.22;100.00
29935;BME280;19905;53.370;-6.314;2023-04-01T02:54:39;100039.63;;;8.22;100.00
29935;BME280;19905;53.370;-6.314;2023-04-01T02:57:07;100024.91;;;8.20;100.00
29935;BME280;19905;53.370;-6.314;2023-04-01T02:59:36;100038.94;;;8.20;100.00
29935;BME280;19905;53.370;-6.314;2023-04-01T03:02:04;100034.59;;;8.19;100.00
29935;BME280;19905;53.370;-6.314;2023-04-01T03:04:34;100039.84;;;8.19;100.00
29935;BME280;19905;53.370;-6.314;2023-04-01T03:07:02;100039.84;;;8.19;100.00
29935;BME280;19905;53.370;-6.314;2023-04-01T03:09:31;100044.28;;;8.19;100.00
29935;BME280;19905;53.370;-6.314;2023-04-01T03:12:01;100040.69;;;8.20;100.00
29935;BME280;19905;53.370;-6.314;2023-04-01T03:14:30;100051.22;;;8.20;100.00
29935;BME280;19905;53.370;-6.314;2023-04-01T03:16:58;100047.03;;;8.17;100.00
29935;BME280;19905;53.370;-6.314;2023-04-01T03:19:27;100058.28;;;8.19;100.00
29935;BME280;19905;53.370;-6.314;2023-04-01T03:21:56;100056.72;;;8.17;100.00
29935;BME280;19905;53.370;-6.314;2023-04-01T03:24:25;100064.50;;;8.18;100.00
29935;BME280;19905;53.370;-6.314;2023-04-01T03:26:53;100059.47;;;8.15;100.00
29935;BME280;19905;53.370;-6.314;2023-04-01T03:29:23;100062.00;;;8.17;100.00
29935;BME280;19905;53.370;-6.314;2023-04-01T03:31:52;100065.47;;;8.17;100.00
29935;BME280;19905;53.370;-6.314;2023-04-01T03:34:20;100070.84;;;8.15;100.00
29935;BME280;19905;53.370;-6.314;2023-04-01T03:36:49;100066.53;;;8.14;100.00
29935;BME280;19905;53.370;-6.314;2023-04-01T03:39:18;100072.63;;;8.15;100.00
29935;BME280;19905;53.370;-6.314;2023-04-01T03:41:46;100073.34;;;8.17;100.00
29935;BME280;19905;53.370;-6.314;2023-04-01T03:44:15;100082.06;;;8.18;100.00
29935;BME280;19905;53.370;-6.314;2023-04-01T03:46:45;100083.75;;;8.19;100.00
29935;BME280;19905;53.370;-6.314;2023-04-01T03:49:13;100082.22;;;8.16;100.00
29935;BME280;19905;53.370;-6.314;2023-04-01T03:51:43;100087.47;;;8.16;100.00
29935;BME280;19905;53.370;-6.314;2023-04-01T03:54:12;100089.25;;;8.15;100.00
29935;BME280;19905;53.370;-6.314;2023-04-01T03:56:41;100094.53;;;8.15;100.00
29935;BME280;19905;53.370;-6.314;2023-04-01T03:59:09;100097.88;;;8.18;100.00
29935;BME280;19905;53.370;-6.314;2023-04-01T04:01:38;100099.66;;;8.17;100.00
29935;BME280;19905;53.370;-6.314;2023-04-01T04:04:10;100098.22;;;8.13;100.00
29935;BME280;19905;53.370;-6.314;2023-04-01T04:06:40;100094.88;;;8.11;100.00
29935;BME280;19905;53.370;-6.314;2023-04-01T04:09:09;100106.09;;;8.13;100.00
29935;BME280;19905;53.370;-6.314;2023-04-01T04:11:38;100102.50;;;8.14;100.00
29935;BME280;19905;53.370;-6.314;2023-04-01T04:14:06;100099.03;;;8.13;100.00
29935;BME280;19905;53.370;-6.314;2023-04-01T04:16:35;100111.50;;;8.11;100.00
29935;BME280;19905;53.370;-6.314;2023-04-01T04:19:04;100115.91;;;8.11;100.00
29935;BME280;19905;53.370;-6.314;2023-04-01T04:21:34;100108.97;;;8.10;100.00
29935;BME280;19905;53.370;-6.314;2023-04-01T04:24:03;100110.03;;;8.07;100.00
29935;BME280;19905;53.370;-6.314;2023-04-01T04:26:32;100114.22;;;8.10;100.00
29935;BME280;19905;53.370;-6.314;2023-04-01T04:29:01;100123.91;;;8.09;100.00
29935;BME280;19905;53.370;-6.314;2023-04-01T04:31:30;100118.03;;;8.06;100.00
29935;BME280;19905;53.370;-6.314;2023-04-01T04:34:00;100125.22;;;8.04;100.00
29935;BME280;19905;53.370;-6.314;2023-04-01T04:36:29;100131.31;;;8.04;100.00
29935;BME280;19905;53.370;-6.314;2023-04-01T04:38:59;100132.25;;;8.03;100.00
29935;BME280;19905;53.370;-6.314;2023-04-01T04:41:29;100133.22;;;8.02;100.00
29935;BME280;19905;53.370;-6.314;2023-04-01T04:43:57;100134.06;;;8.03;100.00
29935;BME280;19905;53.370;-6.314;2023-04-01T04:46:26;100136.69;;;8.03;100.00
29935;BME280;19905;53.370;-6.314;2023-04-01T04:48:55;100146.38;;;8.02;100.00
29935;BME280;19905;53.370;-6.314;2023-04-01T04:51:24;100149.84;;;8.03;100.00
29935;BME280;19905;53.370;-6.314;2023-04-01T04:53:52;100149.94;;;8.01;100.00
29935;BME280;19905;53.370;-6.314;2023-04-01T04:56:23;100157.00;;;8.01;100.00
29935;BME280;19905;53.370;-6.314;2023-04-01T04:58:52;100157.13;;;7.99;100.00
29935;BME280;19905;53.370;-6.314;2023-04-01T05:01:21;100160.59;;;8.00;100.00
29935;BME280;19905;53.370;-6.314;2023-04-01T05:03:50;100166.69;;;8.00;100.00
29935;BME280;19905;53.370;-6.314;2023-04-01T05:06:19;100165.00;;;7.99;100.00
29935;BME280;19905;53.370;-6.314;2023-04-01T05:08:49;100164.16;;;7.99;100.00
29935;BME280;19905;53.370;-6.314;2023-04-01T05:11:19;100172.91;;;7.99;100.00
29935;BME280;19905;53.370;-6.314;2023-04-01T05:13:49;100173.03;;;7.98;100.00
29935;BME280;19905;53.370;-6.314;2023-04-01T05:16:19;100176.34;;;8.00;100.00
29935;BME280;19905;53.370;-6.314;2023-04-01T05:18:49;100181.63;;;8.00;100.00
29935;BME280;19905;53.370;-6.314;2023-04-01T05:21:17;100184.38;;;7.98;100.00
29935;BME280;19905;53.370;-6.314;2023-04-01T05:23:46;100190.47;;;7.99;100.00
29935;BME280;19905;53.370;-6.314;2023-04-01T05:26:15;100192.03;;;8.01;100.00
29935;BME280;19905;53.370;-6.314;2023-04-01T05:28:43;100199.06;;;8.01;100.00
29935;BME280;19905;53.370;-6.314;2023-04-01T05:31:14;100201.81;;;7.99;100.00
29935;BME280;19905;53.370;-6.314;2023-04-01T05:33:43;100211.50;;;7.99;100.00
29935;BME280;19905;53.370;-6.314;2023-04-01T05:36:14;100220.94;;;8.01;100.00
29935;BME280;19905;53.370;-6.314;2023-04-01T05:38:43;100220.22;;;7.99;100.00
29935;BME280;19905;53.370;-6.314;2023-04-01T05:41:13;100227.06;;;8.02;100.00
29935;BME280;19905;53.370;-6.314;2023-04-01T05:43:42;100226.13;;;8.03;100.00
29935;BME280;19905;53.370;-6.314;2023-04-01T05:46:11;100227.06;;;8.02;100.00
29935;BME280;19905;53.370;-6.314;2023-04-01T05:48:41;100234.00;;;8.03;100.00
29935;BME280;19905;53.370;-6.314;2023-04-01T05:51:12;100235.91;;;8.01;100.00
29935;BME280;19905;53.370;-6.314;2023-04-01T05:53:42;100234.09;;;8.01;100.00
29935;BME280;19905;53.370;-6.314;2023-04-01T05:56:10;100241.16;;;8.01;100.00
29935;BME280;19905;53.370;-6.314;2023-04-01T05:58:39;100246.41;;;8.01;100.00
29935;BME280;19905;53.370;-6.314;2023-04-01T06:01:10;100248.13;;;8.02;100.00
29935;BME280;19905;53.370;-6.314;2023-04-01T06:03:44;100253.25;;;8.03;100.00
29935;BME280;19905;53.370;-6.314;2023-04-01T06:06:15;100267.13;;;8.05;100.00
29935;BME280;19905;53.370;-6.314;2023-04-01T06:08:44;100263.78;;;8.03;100.00
29935;BME280;19905;53.370;-6.314;2023-04-01T06:11:23;100270.50;;;8.07;100.00
29935;BME280;19905;53.370;-6.314;2023-04-01T06:14:10;100268.50;;;8.11;100.00
29935;BME280;19905;53.370;-6.314;2023-04-01T06:16:54;100278.16;;;8.10;100.00
29935;BME280;19905;53.370;-6.314;2023-04-01T06:19:34;100280.56;;;8.13;100.00
29935;BME280;19905;53.370;-6.314;2023-04-01T06:22:28;100288.31;;;8.15;100.00
29935;BME280;19905;53.370;-6.314;2023-04-01T06:25:19;100289.06;;;8.17;100.00
29935;BME280;19905;53.370;-6.314;2023-04-01T06:28:02;100292.75;;;8.14;100.00
29935;BME280;19905;53.370;-6.314;2023-04-01T06:30:41;100296.97;;;8.17;100.00
29935;BME280;19905;53.370;-6.314;2023-04-01T06:33:23;100314.44;;;8.18;100.00
29935;BME280;19905;53.370;-6.314;2023-04-01T06:36:09;100316.00;;;8.21;100.00
29935;BME280;19905;53.370;-6.314;2023-04-01T06:38:55;100321.47;;;8.18;100.00
29935;BME280;19905;53.370;-6.314;2023-04-01T06:41:44;100325.41;;;8.12;100.00
29935;BME280;19905;53.370;-6.314;2023-04-01T06:44:24;100329.81;;;8.11;100.00
29935;BME280;19905;53.370;-6.314;2023-04-01T06:46:58;100337.81;;;8.10;100.00
29935;BME280;19905;53.370;-6.314;2023-04-01T06:49:36;100349.41;;;8.07;100.00
29935;BME280;19905;53.370;-6.314;2023-04-01T06:52:19;100350.25;;;8.08;100.00
29935;BME280;19905;53.370;-6.314;2023-04-01T06:54:55;100367.41;;;8.01;100.00
29935;BME280;19905;53.370;-6.314;2023-04-01T06:57:33;100365.84;;;7.98;100.00
29935;BME280;19905;53.370;-6.314;2023-04-01T07:00:11;100374.78;;;7.96;100.00
29935;BME280;19905;53.370;-6.314;2023-04-01T07:02:45;100373.94;;;7.95;100.00
29935;BME280;19905;53.370;-6.314;2023-04-01T07:05:20;100377.66;;;7.93;100.00
29935;BME280;19905;53.370;-6.314;2023-04-01T07:07:54;100381.31;;;7.90;100.00
29935;BME280;19905;53.370;-6.314;2023-04-01T07:10:34;100393.81;;;7.99;100.00
29935;BME280;19905;53.370;-6.314;2023-04-01T07:13:06;100398.38;;;7.97;100.00
29935;BME280;19905;53.370;-6.314;2023-04-01T07:15:40;100407.94;;;7.98;100.00
29935;BME280;19905;53.370;-6.314;2023-04-01T07:18:13;100412.88;;;8.03;100.00
29935;BME280;19905;53.370;-6.314;2023-04-01T07:20:44;100416.22;;;8.05;100.00
29935;BME280;19905;53.370;-6.314;2023-04-01T07:23:21;100418.97;;;8.03;100.00
29935;BME280;19905;53.370;-6.314;2023-04-01T07:25:55;100425.06;;;8.04;100.00
29935;BME280;19905;53.370;-6.314;2023-04-01T07:28:30;100431.16;;;8.04;100.00
29935;BME280;19905;53.370;-6.314;2023-04-01T07:31:10;100434.88;;;8.02;100.00
29935;BME280;19905;53.370;-6.314;2023-04-01T07:33:55;100446.22;;;8.02;100.00
29935;BME280;19905;53.370;-6.314;2023-04-01T07:36:33;100451.47;;;8.02;100.00
29935;BME280;19905;53.370;-6.314;2023-04-01T07:39:19;100462.22;;;7.99;100.00
29935;BME280;19905;53.370;-6.314;2023-04-01T07:41:58;100463.88;;;8.00;100.00
29935;BME280;19905;53.370;-6.314;2023-04-01T07:44:36;100464.41;;;8.05;100.00
29935;BME280;19905;53.370;-6.314;2023-04-01T07:50:22;100480.63;;;7.99;100.00
29935;BME280;19905;53.370;-6.314;2023-04-01T07:53:03;100486.28;;;8.06;100.00
29935;BME280;19905;53.370;-6.314;2023-04-01T07:55:42;100484.41;;;8.08;100.00
29935;BME280;19905;53.370;-6.314;2023-04-01T07:58:21;100493.13;;;8.08;100.00
29935;BME280;19905;53.370;-6.314;2023-04-01T08:00:58;100497.34;;;8.11;100.00
29935;BME280;19905;53.370;-6.314;2023-04-01T08:03:38;100505.66;;;8.18;100.00
29935;BME280;19905;53.370;-6.314;2023-04-01T08:06:17;100508.41;;;8.16;100.00
29935;BME280;19905;53.370;-6.314;2023-04-01T08:08:57;100518.16;;;8.14;100.00
29935;BME280;19905;53.370;-6.314;2023-04-01T08:11:41;100519.13;;;8.13;100.00
29935;BME280;19905;53.370;-6.314;2023-04-01T08:14:30;100527.13;;;8.11;100.00
29935;BME280;19905;53.370;-6.314;2023-04-01T08:17:04;100529.22;;;8.19;100.00
29935;BME280;19905;53.370;-6.314;2023-04-01T08:19:47;100536.78;;;8.24;100.00
29935;BME280;19905;53.370;-6.314;2023-04-01T08:22:25;100538.50;;;8.25;100.00
29935;BME280;19905;53.370;-6.314;2023-04-01T08:25:01;100554.56;;;8.33;100.00
29935;BME280;19905;53.370;-6.314;2023-04-01T08:27:38;100551.31;;;8.42;100.00
29935;BME280;19905;53.370;-6.314;2023-04-01T08:30:18;100565.88;;;8.48;100.00
29935;BME280;19905;53.370;-6.314;2023-04-01T08:32:49;100567.53;;;8.49;100.00
29935;BME280;19905;53.370;-6.314;2023-04-01T08:35:27;100574.03;;;8.56;100.00
29935;BME280;19905;53.370;-6.314;2023-04-01T08:38:09;100582.59;;;8.59;100.00
29935;BME280;19905;53.370;-6.314;2023-04-01T08:40:59;100585.66;;;8.53;100.00
29935;BME280;19905;53.370;-6.314;2023-04-01T08:43:53;100582.50;;;8.48;100.00
29935;BME280;19905;53.370;-6.314;2023-04-01T08:52:34;100609.09;;;8.69;100.00
29935;BME280;19905;53.370;-6.314;2023-04-01T09:01:27;100624.44;;;8.88;100.00
29935;BME280;19905;53.370;-6.314;2023-04-01T09:04:24;100629.38;;;8.93;100.00
29935;BME280;19905;53.370;-6.314;2023-04-01T09:07:06;100631.13;;;8.81;100.00
29935;BME280;19905;53.370;-6.314;2023-04-01T09:10:11;100635.00;;;8.88;100.00
29935;BME280;19905;53.370;-6.314;2023-04-01T09:13:07;100630.28;;;8.80;100.00
29935;BME280;19905;53.370;-6.314;2023-04-01T09:16:17;100643.63;;;8.90;100.00
29935;BME280;19905;53.370;-6.314;2023-04-01T09:19:09;100651.09;;;8.96;100.00
29935;BME280;19905;53.370;-6.314;2023-04-01T09:22:05;100651.53;;;8.90;100.00
29935;BME280;19905;53.370;-6.314;2023-04-01T09:24:49;100661.13;;;8.91;100.00
29935;BME280;19905;53.370;-6.314;2023-04-01T09:27:28;100662.47;;;8.97;100.00
29935;BME280;19905;53.370;-6.314;2023-04-01T09:30:24;100663.63;;;9.05;100.00
29935;BME280;19905;53.370;-6.314;2023-04-01T09:36:04;100663.91;;;9.26;100.00
29935;BME280;19905;53.370;-6.314;2023-04-01T09:38:49;100663.66;;;9.29;100.00
29935;BME280;19905;53.370;-6.314;2023-04-01T09:41:29;100664.47;;;9.42;100.00
29935;BME280;19905;53.370;-6.314;2023-04-01T09:44:03;100674.59;;;9.49;100.00
29935;BME280;19905;53.370;-6.314;2023-04-01T09:46:42;100675.31;;;9.51;100.00
29935;BME280;19905;53.370;-6.314;2023-04-01T09:49:47;100679.47;;;9.66;100.00
29935;BME280;19905;53.370;-6.314;2023-04-01T09:52:32;100680.03;;;9.58;100.00
29935;BME280;19905;53.370;-6.314;2023-04-01T09:55:35;100683.72;;;9.56;100.00
29935;BME280;19905;53.370;-6.314;2023-04-01T09:58:43;100686.44;;;9.67;100.00
29935;BME280;19905;53.370;-6.314;2023-04-01T10:01:32;100689.34;;;9.75;100.00
29935;BME280;19905;53.370;-6.314;2023-04-01T10:04:31;100681.75;;;9.71;100.00
29935;BME280;19905;53.370;-6.314;2023-04-01T10:07:30;100695.44;;;9.76;100.00
29935;BME280;19905;53.370;-6.314;2023-04-01T10:10:31;100688.63;;;9.73;100.00
29935;BME280;19905;53.370;-6.314;2023-04-01T10:13:28;100692.75;;;9.88;100.00
29935;BME280;19905;53.370;-6.314;2023-04-01T10:17:01;100694.94;;;9.71;100.00
29935;BME280;19905;53.370;-6.314;2023-04-01T10:20:06;100706.91;;;9.87;100.00
29935;BME280;19905;53.370;-6.314;2023-04-01T10:26:01;100706.84;;;10.00;100.00
29935;BME280;19905;53.370;-6.314;2023-04-01T10:41:04;100723.81;;;10.44;100.00
29935;BME280;19905;53.370;-6.314;2023-04-01T10:44:02;100725.25;;;10.37;100.00
29935;BME280;19905;53.370;-6.314;2023-04-01T10:47:05;100718.66;;;10.42;100.00
29935;BME280;19905;53.370;-6.314;2023-04-01T10:53:08;100726.81;;;10.39;100.00
29935;BME280;19905;53.370;-6.314;2023-04-01T10:56:07;100726.38;;;10.57;100.00
29935;BME280;19905;53.370;-6.314;2023-04-01T11:08:38;100733.38;;;10.80;100.00
29935;BME280;19905;53.370;-6.314;2023-04-01T11:11:53;100734.44;;;10.55;100.00
29935;BME280;19905;53.370;-6.314;2023-04-01T11:23:46;100748.41;;;10.80;100.00
29935;BME280;19905;53.370;-6.314;2023-04-01T11:26:44;100754.28;;;10.72;100.00
29935;BME280;19905;53.370;-6.314;2023-04-01T11:32:44;100762.25;;;11.06;100.00
29935;BME280;19905;53.370;-6.314;2023-04-01T11:35:29;100759.63;;;11.51;100.00
29935;BME280;19905;53.370;-6.314;2023-04-01T11:38:15;100756.34;;;11.58;100.00
29935;BME280;19905;53.370;-6.314;2023-04-01T11:40:52;100763.81;;;11.53;100.00
29935;BME280;19905;53.370;-6.314;2023-04-01T11:43:33;100765.38;;;11.56;100.00
29935;BME280;19905;53.370;-6.314;2023-04-01T11:46:10;100767.03;;;11.68;100.00
29935;BME280;19905;53.370;-6.314;2023-04-01T11:49:05;100771.28;;;11.59;100.00
29935;BME280;19905;53.370;-6.314;2023-04-01T11:52:00;100766.66;;;12.27;100.00
29935;BME280;19905;53.370;-6.314;2023-04-01T11:54:43;100754.19;;;12.60;100.00
29935;BME280;19905;53.370;-6.314;2023-04-01T11:57:48;100748.78;;;12.40;100.00
29935;BME280;19905;53.370;-6.314;2023-04-01T12:00:43;100759.06;;;12.55;100.00
29935;BME280;19905;53.370;-6.314;2023-04-01T12:03:27;100757.41;;;12.75;100.00
29935;BME280;19905;53.370;-6.314;2023-04-01T12:06:06;100764.66;;;12.82;100.00
29935;BME280;19905;53.370;-6.314;2023-04-01T12:08:44;100749.78;;;12.91;100.00
29935;BME280;19905;53.370;-6.314;2023-04-01T12:11:19;100755.03;;;13.33;100.00
29935;BME280;19905;53.370;-6.314;2023-04-01T12:13:57;100759.38;;;13.24;100.00
29935;BME280;19905;53.370;-6.314;2023-04-01T12:16:41;100762.06;;;12.92;100.00
29935;BME280;19905;53.370;-6.314;2023-04-01T12:19:19;100769.91;;;12.72;100.00
29935;BME280;19905;53.370;-6.314;2023-04-01T12:22:02;100779.75;;;12.61;100.00
29935;BME280;19905;53.370;-6.314;2023-04-01T12:24:46;100790.53;;;12.69;100.00
29935;BME280;19905;53.370;-6.314;2023-04-01T12:27:40;100795.66;;;13.03;100.00
29935;BME280;19905;53.370;-6.314;2023-04-01T12:36:26;100777.81;;;13.76;100.00
29935;BME280;19905;53.370;-6.314;2023-04-01T12:41:57;100781.34;;;13.86;100.00
29935;BME280;19905;53.370;-6.314;2023-04-01T12:44:39;100786.88;;;13.63;100.00
29935;BME280;19905;53.370;-6.314;2023-04-01T12:50:19;100806.25;;;13.03;100.00
29935;BME280;19905;53.370;-6.314;2023-04-01T12:53:11;100813.97;;;13.06;100.00
29935;BME280;19905;53.370;-6.314;2023-04-01T12:55:45;100814.50;;;13.09;100.00
29935;BME280;19905;53.370;-6.314;2023-04-01T13:01:29;100806.44;;;13.62;100.00
29935;BME280;19905;53.370;-6.314;2023-04-01T13:04:29;100822.81;;;13.77;100.00
29935;BME280;19905;53.370;-6.314;2023-04-01T13:10:18;100830.13;;;13.23;100.00
29935;BME280;19905;53.370;-6.314;2023-04-01T13:13:16;100833.06;;;13.09;100.00
29935;BME280;19905;53.370;-6.314;2023-04-01T13:15:52;100839.38;;;13.08;100.00
29935;BME280;19905;53.370;-6.314;2023-04-01T13:18:31;100850.09;;;13.07;100.00
29935;BME280;19905;53.370;-6.314;2023-04-01T13:21:11;100855.75;;;12.92;100.00
29935;BME280;19905;53.370;-6.314;2023-04-01T13:23:53;100863.78;;;12.91;100.00
29935;BME280;19905;53.370;-6.314;2023-04-01T13:26:29;100864.69;;;12.80;100.00
29935;BME280;19905;53.370;-6.314;2023-04-01T13:29:07;100870.25;;;12.77;100.00
29935;BME280;19905;53.370;-6.314;2023-04-01T13:31:52;100874.28;;;12.92;100.00
29935;BME280;19905;53.370;-6.314;2023-04-01T13:34:35;100872.31;;;13.27;100.00
29935;BME280;19905;53.370;-6.314;2023-04-01T13:37:19;100867.03;;;13.57;100.00
29935;BME280;19905;53.370;-6.314;2023-04-01T13:40:11;100877.28;;;13.41;100.00
29935;BME280;19905;53.370;-6.314;2023-04-01T13:42:53;100877.03;;;13.23;100.00
29935;BME280;19905;53.370;-6.314;2023-04-01T13:45:29;100882.25;;;13.13;100.00
29935;BME280;19905;53.370;-6.314;2023-04-01T13:48:29;100893.81;;;12.91;100.00
29935;BME280;19905;53.370;-6.314;2023-04-01T13:54:34;100917.56;;;12.50;100.00
29935;BME280;19905;53.370;-6.314;2023-04-01T13:57:42;100933.63;;;12.26;100.00
29935;BME280;19905;53.370;-6.314;2023-04-01T14:00:25;100934.88;;;12.10;100.00
29935;BME280;19905;53.370;-6.314;2023-04-01T14:03:28;100944.97;;;12.05;100.00
29935;BME280;19905;53.370;-6.314;2023-04-01T14:06:17;100949.78;;;12.00;100.00
29935;BME280;19905;53.370;-6.314;2023-04-01T14:08:55;100956.66;;;11.91;100.00
29935;BME280;19905;53.370;-6.314;2023-04-01T14:11:34;100954.94;;;11.90;100.00
29935;BME280;19905;53.370;-6.314;2023-04-01T14:14:14;100963.38;;;11.84;100.00
29935;BME280;19905;53.370;-6.314;2023-04-01T14:17:10;100966.88;;;11.96;100.00
29935;BME280;19905;53.370;-6.314;2023-04-01T14:19:56;100962.59;;;11.71;100.00
29935;BME280;19905;53.370;-6.314;2023-04-01T14:22:38;100978.47;;;11.60;100.00
29935;BME280;19905;53.370;-6.314;2023-04-01T14:25:34;100994.31;;;11.49;100.00
29935;BME280;19905;53.370;-6.314;2023-04-01T14:28:17;101006.75;;;11.35;100.00
29935;BME280;19905;53.370;-6.314;2023-04-01T14:30:57;101019.13;;;11.24;100.00
29935;BME280;19905;53.370;-6.314;2023-04-01T14:33:39;101031.41;;;11.12;100.00
29935;BME280;19905;53.370;-6.314;2023-04-01T14:36:32;101040.69;;;10.93;100.00
29935;BME280;19905;53.370;-6.314;2023-04-01T14:39:20;101060.16;;;10.92;100.00
29935;BME280;19905;53.370;-6.314;2023-04-01T14:42:03;101062.75;;;10.81;100.00
29935;BME280;19905;53.370;-6.314;2023-04-01T14:45:02;101079.13;;;10.74;100.00
29935;BME280;19905;53.370;-6.314;2023-04-01T14:47:50;101077.31;;;10.87;100.00
29935;BME280;19905;53.370;-6.314;2023-04-01T14:50:24;101089.53;;;11.01;100.00
29935;BME280;19905;53.370;-6.314;2023-04-01T14:52:59;101092.22;;;11.12;100.00
29935;BME280;19905;53.370;-6.314;2023-04-01T14:55:49;101090.25;;;11.27;100.00